Time;durP1;ratioP1;P1;durP2;ratioP2;P2;SDS_P1;SDS_P2;PMS_P1;PMS_P2;Temp;Humidity;BMP_temperature;BMP_pressure;BME280_temperature;BME280_humidity;BME280_pressure;Samples;Min_cycle;Max_cycle;Signal;HPM_P1;HPM_P2
2022/09/19 00:01:17;;;;;;;7.90;3.00;;;11.10;99.90;;;;;;5072954;28;20169;-68
2022/09/19 00:03:55;;;;;;;9.83;3.30;;;11.10;99.90;;;;;;5073246;28;20255;-69
2022/09/19 00:06:22;;;;;;;10.33;2.80;;;11.10;99.90;;;;;;5073113;28;20172;-68
2022/09/19 00:08:48;;;;;;;9.03;2.87;;;11.10;99.90;;;;;;5073085;28;20245;-68
2022/09/19 00:11:17;;;;;;;14.97;3.17;;;11.10;99.90;;;;;;5073679;28;20169;-69
2022/09/19 00:13:47;;;;;;;13.47;3.07;;;11.10;99.90;;;;;;5076991;28;20235;-69
2022/09/19 00:16:23;;;;;;;11.37;3.50;;;11.10;99.90;;;;;;5076459;28;20219;-69
2022/09/19 00:18:51;;;;;;;7.93;3.20;;;11.10;99.90;;;;;;5076981;28;20180;-68
2022/09/19 00:21:26;;;;;;;11.30;3.00;;;11.20;99.90;;;;;;5077056;28;20172;-68
2022/09/19 00:26:36;;;;;;;6.23;2.77;;;11.10;99.90;;;;;;5077189;28;20226;-68
2022/09/19 00:29:03;;;;;;;6.23;2.97;;;11.10;99.90;;;;;;5076829;28;20176;-68
2022/09/19 00:31:29;;;;;;;9.50;3.17;;;11.10;99.90;;;;;;5076373;28;20187;-68
2022/09/19 00:33:55;;;;;;;7.50;2.77;;;11.10;99.90;;;;;;5076578;28;20208;-68
2022/09/19 00:36:21;;;;;;;10.13;3.00;;;11.10;99.90;;;;;;5076615;28;20647;-68
2022/09/19 00:38:46;;;;;;;14.33;3.07;;;11.00;99.90;;;;;;5076562;28;20640;-68
2022/09/19 00:41:21;;;;;;;9.17;3.07;;;11.10;99.90;;;;;;5076486;28;20165;-69
2022/09/19 00:43:52;;;;;;;9.37;3.00;;;11.10;99.90;;;;;;5076202;28;20168;-69
2022/09/19 00:46:20;;;;;;;8.13;2.87;;;11.20;99.90;;;;;;5076289;28;20643;-69
2022/09/19 00:48:50;;;;;;;9.13;3.07;;;11.20;99.90;;;;;;5076432;28;20184;-69
2022/09/19 00:51:37;;;;;;;8.10;2.80;;;11.30;99.90;;;;;;5076302;28;20199;-69
2022/09/19 00:54:11;;;;;;;6.57;3.03;;;11.40;99.90;;;;;;5076311;28;20265;-69
2022/09/19 00:56:42;;;;;;;10.30;3.17;;;11.40;99.90;;;;;;5076256;28;20168;-69
2022/09/19 00:59:09;;;;;;;10.93;3.00;;;11.40;99.90;;;;;;5075756;28;20196;-69
2022/09/19 01:01:35;;;;;;;6.60;3.00;;;11.50;99.90;;;;;;5076223;28;20192;-69
2022/09/19 01:04:01;;;;;;;11.83;2.70;;;11.50;99.90;;;;;;5076217;28;20203;-69
2022/09/19 01:07:01;;;;;;;7.63;2.70;;;11.60;99.90;;;;;;5076145;28;20176;-69
2022/09/19 01:09:48;;;;;;;9.60;2.67;;;11.50;99.90;;;;;;5033903;28;20256;-69
2022/09/19 01:12:38;;;;;;;7.43;2.67;;;11.50;99.90;;;;;;5033926;28;20173;-69
2022/09/19 01:15:42;;;;;;;12.23;2.87;;;11.40;99.90;;;;;;5033627;28;20193;-69
2022/09/19 01:18:09;;;;;;;9.37;2.73;;;11.50;99.90;;;;;;4994472;28;20367;-69
2022/09/19 01:20:52;;;;;;;8.27;2.67;;;11.30;99.90;;;;;;4994182;28;20188;-69
2022/09/19 01:23:57;;;;;;;7.07;2.40;;;11.20;99.90;;;;;;4994328;28;20646;-69
2022/09/19 01:26:44;;;;;;;5.77;2.40;;;11.10;99.90;;;;;;4991812;28;20302;-69
2022/09/19 01:29:21;;;;;;;7.27;2.53;;;11.10;99.90;;;;;;4993782;28;20183;-69
2022/09/19 01:31:51;;;;;;;6.63;2.63;;;11.10;99.90;;;;;;4993982;28;20274;-69
2022/09/19 01:34:34;;;;;;;9.83;2.60;;;11.20;99.90;;;;;;4994050;28;20298;-69
2022/09/19 01:37:30;;;;;;;7.37;2.43;;;11.30;99.90;;;;;;4994133;28;20236;-69
2022/09/19 01:40:00;;;;;;;11.23;2.50;;;11.40;99.90;;;;;;4993870;28;20187;-69
2022/09/19 01:42:26;;;;;;;6.30;2.13;;;11.50;99.90;;;;;;4993909;28;20650;-69
2022/09/19 01:44:53;;;;;;;8.03;2.07;;;11.40;99.90;;;;;;4993883;28;20245;-69
2022/09/19 01:47:36;;;;;;;12.80;2.87;;;11.30;99.90;;;;;;5044683;28;20226;-69
2022/09/19 01:50:13;;;;;;;4.07;2.00;;;11.30;99.90;;;;;;5053051;28;20173;-69
2022/09/19 01:53:14;;;;;;;9.63;2.57;;;11.30;99.90;;;;;;5052894;28;20217;-69
2022/09/19 01:55:59;;;;;;;9.87;2.37;;;11.30;99.90;;;;;;5074461;28;20261;-69
2022/09/19 01:58:50;;;;;;;8.03;2.47;;;11.30;99.90;;;;;;5074639;28;20180;-69
2022/09/19 02:01:38;;;;;;;5.97;2.10;;;11.20;99.90;;;;;;5074950;28;20264;-69
2022/09/19 02:04:19;;;;;;;7.60;2.30;;;11.10;99.90;;;;;;5075065;28;20180;-68
2022/09/19 02:07:07;;;;;;;3.80;2.20;;;11.10;99.90;;;;;;5074982;28;20169;-68
2022/09/19 02:09:47;;;;;;;9.50;2.80;;;11.10;99.90;;;;;;5074972;28;20222;-68
2022/09/19 02:12:16;;;;;;;8.83;2.20;;;11.00;99.90;;;;;;5074511;28;20168;-68
2022/09/19 02:14:52;;;;;;;5.10;2.33;;;11.00;99.90;;;;;;5074630;28;20181;-69
2022/09/19 02:17:23;;;;;;;5.27;1.93;;;11.00;99.90;;;;;;5074410;28;20720;-69
2022/09/19 02:19:54;;;;;;;12.37;2.57;;;10.90;99.90;;;;;;5074465;28;20659;-68
2022/09/19 02:22:30;;;;;;;8.40;2.57;;;11.00;99.90;;;;;;5074486;28;20165;-69
2022/09/19 02:25:00;;;;;;;10.53;2.17;;;11.00;99.90;;;;;;5074648;28;20184;-69
2022/09/19 02:27:35;;;;;;;10.60;2.43;;;11.00;99.90;;;;;;5074190;28;20218;-69
2022/09/19 02:30:08;;;;;;;6.97;2.00;;;11.00;99.90;;;;;;5074279;28;20230;-68
2022/09/19 02:32:35;;;;;;;7.83;2.23;;;11.10;99.90;;;;;;5074235;28;20165;-68
2022/09/19 02:35:02;;;;;;;8.30;2.20;;;11.10;99.90;;;;;;5073786;28;20237;-68
2022/09/19 02:37:29;;;;;;;9.97;2.47;;;11.10;99.90;;;;;;5074237;28;20179;-68
2022/09/19 02:40:01;;;;;;;8.30;2.20;;;11.10;99.90;;;;;;5073818;28;20176;-68
2022/09/19 02:42:47;;;;;;;9.70;2.17;;;11.10;99.90;;;;;;5073980;28;20243;-68
2022/09/19 02:45:29;;;;;;;10.03;2.10;;;11.10;99.90;;;;;;5074002;28;20172;-68
2022/09/19 02:48:07;;;;;;;7.43;2.30;;;11.00;99.90;;;;;;5074137;28;20211;-68
2022/09/19 02:51:11;;;;;;;7.23;2.30;;;11.00;99.90;;;;;;5073857;28;20267;-68
2022/09/19 02:53:44;;;;;;;8.50;2.33;;;10.90;99.90;;;;;;5071938;28;20279;-68
2022/09/19 02:56:14;;;;;;;10.27;2.37;;;10.90;99.90;;;;;;5073504;28;20188;-68
2022/09/19 02:58:47;;;;;;;8.37;2.47;;;10.90;99.90;;;;;;5073829;28;20196;-68
2022/09/19 03:01:24;;;;;;;11.57;2.20;;;10.90;99.90;;;;;;5073848;28;20230;-68
2022/09/19 03:04:11;;;;;;;12.23;2.17;;;10.90;99.90;;;;;;5073867;28;20251;-68
2022/09/19 03:06:42;;;;;;;10.47;2.53;;;10.90;99.90;;;;;;5073637;28;20172;-68
2022/09/19 03:09:08;;;;;;;7.50;2.20;;;10.80;99.90;;;;;;5073385;28;20259;-68
2022/09/19 03:11:38;;;;;;;7.43;2.40;;;10.80;99.90;;;;;;5073612;28;20697;-68
2022/09/19 03:14:06;;;;;;;9.90;2.20;;;10.70;99.90;;;;;;5073366;28;20253;-68
2022/09/19 03:16:35;;;;;;;6.87;2.30;;;10.60;99.90;;;;;;5073313;28;20295;-68
2022/09/19 03:19:04;;;;;;;9.50;2.40;;;10.60;99.90;;;;;;5073382;28;20173;-69
2022/09/19 03:21:29;;;;;;;9.60;2.40;;;10.60;99.90;;;;;;5073180;28;20192;-68
2022/09/19 03:23:58;;;;;;;8.67;2.57;;;10.60;99.90;;;;;;5073030;28;20234;-68
2022/09/19 03:26:34;;;;;;;7.97;2.57;;;10.60;99.90;;;;;;5073359;28;20173;-67
2022/09/19 03:29:02;;;;;;;8.33;2.43;;;10.60;99.90;;;;;;5072881;28;20225;-68
2022/09/19 03:31:28;;;;;;;9.47;2.10;;;10.60;99.90;;;;;;5073329;28;20161;-69
2022/09/19 03:33:57;;;;;;;8.50;2.53;;;10.70;99.90;;;;;;5073232;28;20702;-68
2022/09/19 03:36:25;;;;;;;8.13;2.30;;;10.70;99.90;;;;;;5073241;28;20192;-68
2022/09/19 03:38:50;;;;;;;12.67;2.37;;;10.70;99.90;;;;;;5072758;28;20177;-68
2022/09/19 03:41:22;;;;;;;13.77;2.77;;;10.70;99.90;;;;;;5072831;28;20654;-68
2022/09/19 03:43:48;;;;;;;7.53;2.50;;;10.60;99.90;;;;;;5072134;28;20658;-68
2022/09/19 03:46:17;;;;;;;14.17;2.57;;;10.60;99.90;;;;;;5071770;28;20168;-69
2022/09/19 03:48:45;;;;;;;6.80;2.30;;;10.70;99.90;;;;;;5073059;28;20173;-68
2022/09/19 03:51:13;;;;;;;10.73;2.80;;;10.70;99.90;;;;;;5072508;28;20219;-68
2022/09/19 03:53:38;;;;;;;7.13;2.57;;;10.70;99.90;;;;;;5071950;28;20230;-68
2022/09/19 03:56:05;;;;;;;13.07;2.63;;;10.60;99.90;;;;;;5072702;28;20168;-69
2022/09/19 03:58:30;;;;;;;12.47;2.77;;;10.60;99.90;;;;;;5071296;28;20196;-69
2022/09/19 04:00:59;;;;;;;7.30;2.30;;;10.70;99.90;;;;;;5072817;28;20513;-69
2022/09/19 04:03:25;;;;;;;7.83;2.37;;;10.70;99.90;;;;;;5072812;28;20176;-69
2022/09/19 04:05:51;;;;;;;8.67;2.77;;;10.70;99.90;;;;;;5072285;28;20168;-69
2022/09/19 04:08:18;;;;;;;8.20;2.93;;;10.70;99.90;;;;;;5072563;28;20257;-69
2022/09/19 04:10:43;;;;;;;8.43;2.73;;;10.70;99.90;;;;;;5072626;28;20266;-69
2022/09/19 04:13:10;;;;;;;5.30;2.30;;;10.60;99.90;;;;;;5072150;28;20207;-69
2022/09/19 04:15:36;;;;;;;9.13;2.87;;;10.50;99.90;;;;;;5072540;28;20203;-68
2022/09/19 04:18:03;;;;;;;13.43;2.47;;;10.60;99.90;;;;;;5072331;28;20224;-68
2022/09/19 04:20:30;;;;;;;8.40;2.70;;;10.50;99.90;;;;;;5072439;28;20636;-68
2022/09/19 04:22:59;;;;;;;13.13;2.80;;;10.50;99.90;;;;;;5072037;28;20174;-68
2022/09/19 04:25:25;;;;;;;7.33;2.93;;;10.50;99.90;;;;;;5072219;28;20246;-68
2022/09/19 04:27:52;;;;;;;8.70;2.93;;;10.50;99.90;;;;;;5072395;28;20184;-68
2022/09/19 04:30:22;;;;;;;11.20;2.97;;;10.40;99.90;;;;;;5072419;28;20169;-70
2022/09/19 04:32:48;;;;;;;9.30;2.97;;;10.40;99.90;;;;;;5072418;28;20205;-69
2022/09/19 04:35:14;;;;;;;12.57;3.00;;;10.40;99.90;;;;;;5072087;28;20567;-69
2022/09/19 04:37:39;;;;;;;13.43;3.00;;;10.30;99.90;;;;;;5072093;28;20168;-69
2022/09/19 04:40:06;;;;;;;9.93;2.80;;;10.30;99.90;;;;;;5071561;28;20595;-68
2022/09/19 04:42:32;;;;;;;11.03;2.80;;;10.30;99.90;;;;;;5071883;28;20239;-70
2022/09/19 04:44:57;;;;;;;10.47;2.83;;;10.30;99.90;;;;;;5071397;28;20184;-69
2022/09/19 04:47:23;;;;;;;8.43;2.50;;;10.20;99.90;;;;;;5072183;28;20575;-68
2022/09/19 04:49:48;;;;;;;6.97;2.60;;;10.30;99.90;;;;;;5071853;28;20268;-69
2022/09/19 04:52:14;;;;;;;10.27;2.43;;;10.20;99.90;;;;;;5071185;28;20595;-69
2022/09/19 04:54:41;;;;;;;12.60;2.90;;;10.30;99.90;;;;;;5071425;28;20212;-68
2022/09/19 04:57:08;;;;;;;11.03;2.47;;;10.30;99.90;;;;;;5072152;28;20535;-69
2022/09/19 04:59:35;;;;;;;9.97;2.63;;;10.30;99.90;;;;;;5075392;28;20191;-69
2022/09/19 05:02:02;;;;;;;7.90;2.40;;;10.20;99.90;;;;;;5075323;28;20199;-69
2022/09/19 05:04:28;;;;;;;6.97;2.70;;;10.30;99.90;;;;;;5074897;28;20186;-69
2022/09/19 05:06:54;;;;;;;5.30;2.50;;;10.30;99.90;;;;;;5074941;28;20259;-69
2022/09/19 05:09:22;;;;;;;8.10;2.47;;;10.20;99.90;;;;;;5074818;28;20251;-69
2022/09/19 05:11:53;;;;;;;11.43;2.70;;;10.20;99.90;;;;;;5074527;28;20180;-70
2022/09/19 05:14:21;;;;;;;11.70;3.00;;;10.20;99.90;;;;;;5075198;28;20208;-69
2022/09/19 05:16:49;;;;;;;13.90;2.93;;;10.20;99.90;;;;;;5073694;28;20235;-69
2022/09/19 05:19:16;;;;;;;10.63;3.27;;;10.20;99.90;;;;;;5074707;28;20176;-69
2022/09/19 05:21:44;;;;;;;10.90;2.93;;;10.10;99.90;;;;;;5074377;28;20169;-69
2022/09/19 05:24:10;;;;;;;10.27;2.80;;;10.20;99.90;;;;;;5074709;28;20254;-69
2022/09/19 05:26:40;;;;;;;10.80;3.10;;;10.20;99.90;;;;;;5073978;28;20172;-69
2022/09/19 05:29:06;;;;;;;10.13;3.10;;;10.30;99.90;;;;;;5074655;28;20176;-70
2022/09/19 05:31:32;;;;;;;10.20;2.90;;;10.40;99.90;;;;;;5074378;28;20228;-69
2022/09/19 05:33:58;;;;;;;12.53;3.27;;;10.50;99.90;;;;;;5074572;28;20630;-69
2022/09/19 05:36:24;;;;;;;11.07;3.20;;;10.50;99.90;;;;;;5074440;28;20184;-69
2022/09/19 05:38:49;;;;;;;7.83;3.23;;;10.60;99.90;;;;;;5073858;28;20176;-70
2022/09/19 05:41:16;;;;;;;12.40;3.00;;;10.70;99.90;;;;;;5074143;28;20222;-69
2022/09/19 05:43:42;;;;;;;11.53;3.23;;;10.70;99.90;;;;;;5073382;28;20283;-71
2022/09/19 05:46:08;;;;;;;10.93;3.07;;;10.80;99.90;;;;;;5074373;28;20298;-70
2022/09/19 05:48:37;;;;;;;19.63;3.23;;;10.90;99.90;;;;;;5074301;28;20196;-69
2022/09/19 05:51:03;;;;;;;12.60;2.97;;;11.00;99.90;;;;;;5073842;28;20173;-70
2022/09/19 05:56:12;;;;;;;7.70;2.60;;;11.20;99.90;;;;;;5073302;28;20582;-70
2022/09/19 05:58:38;;;;;;;10.60;3.10;;;11.30;99.90;;;;;;5072716;28;20208;-70
2022/09/19 06:01:09;;;;;;;14.40;2.83;;;11.40;99.90;;;;;;5073769;28;20230;-71
2022/09/19 06:03:35;;;;;;;11.93;2.93;;;11.70;99.90;;;;;;5072710;28;20173;-69
2022/09/19 06:06:01;;;;;;;8.17;2.83;;;12.10;97.70;;;;;;5073140;28;20263;-69
2022/09/19 06:08:27;;;;;;;7.07;2.50;;;12.30;77.70;;;;;;5071964;28;20187;-68
2022/09/19 06:10:53;;;;;;;7.87;2.53;;;12.40;64.90;;;;;;5072103;28;20594;-69
2022/09/19 06:13:20;;;;;;;10.83;2.90;;;12.60;61.70;;;;;;5073609;28;20564;-68
2022/09/19 06:15:46;;;;;;;8.53;2.40;;;12.90;49.80;;;;;;5072659;28;20179;-68
2022/09/19 06:18:12;;;;;;;6.07;2.60;;;13.20;37.80;;;;;;5073121;28;20189;-69
2022/09/19 06:20:42;;;;;;;5.70;2.47;;;13.20;31.00;;;;;;5073688;28;20179;-68
2022/09/19 06:23:10;;;;;;;7.67;2.57;;;13.10;32.00;;;;;;5071457;28;20194;-68
2022/09/19 06:25:38;;;;;;;8.07;2.80;;;13.30;30.30;;;;;;5072645;28;20199;-70
2022/09/19 06:28:10;;;;;;;7.43;2.87;;;13.50;24.90;;;;;;5072186;28;20160;-69
2022/09/19 06:30:36;;;;;;;6.40;3.00;;;13.70;21.10;;;;;;5072188;28;20169;-68
2022/09/19 06:33:03;;;;;;;10.37;2.80;;;14.10;11.70;;;;;;5072095;28;20204;-69
2022/09/19 06:35:31;;;;;;;10.13;2.63;;;14.40;1.00;;;;;;5073232;28;20218;-69
2022/09/19 06:37:59;;;;;;;6.47;2.90;;;14.50;1.00;;;;;;5014006;28;21128;-69
2022/09/19 06:40:24;;;;;;;7.53;2.77;;;14.60;1.00;;;;;;4979647;28;20257;-70
2022/09/19 06:42:56;;;;;;;11.87;3.57;;;15.00;1.00;;;;;;5001681;28;20177;-69
2022/09/19 06:45:23;;;;;;;12.43;3.33;;;15.40;1.00;;;;;;5006535;28;20240;-69
2022/09/19 06:47:48;;;;;;;6.03;2.73;;;16.20;1.00;;;;;;5035142;28;20731;-69
2022/09/19 06:50:16;;;;;;;12.97;3.20;;;16.20;1.00;;;;;;5043825;28;20250;-70
2022/09/19 06:52:46;;;;;;;10.73;3.17;;;16.60;1.00;;;;;;5057667;28;20203;-70
2022/09/19 06:55:11;;;;;;;6.87;3.00;;;16.80;1.00;;;;;;5014827;28;20181;-70
2022/09/19 06:57:37;;;;;;;6.90;2.60;;;17.10;1.00;;;;;;5004516;28;20175;-70
2022/09/19 07:00:03;;;;;;;8.07;3.30;;;16.10;1.00;;;;;;5042741;28;20164;-69
2022/09/19 07:02:29;;;;;;;9.43;2.93;;;15.80;1.00;;;;;;5003547;28;20576;-69
2022/09/19 07:04:54;;;;;;;8.43;2.87;;;16.20;1.00;;;;;;5056691;28;20198;-67
2022/09/19 07:07:20;;;;;;;11.20;3.10;;;15.90;1.00;;;;;;5019165;28;20180;-67
2022/09/19 07:09:45;;;;;;;9.63;3.50;;;15.80;1.00;;;;;;5027994;28;20182;-69
2022/09/19 07:12:11;;;;;;;10.13;3.27;;;16.00;1.00;;;;;;5048078;28;20267;-68
2022/09/19 07:14:37;;;;;;;12.40;3.27;;;15.30;1.00;;;;;;5003601;28;20689;-69
2022/09/19 07:17:04;;;;;;;14.47;3.50;;;14.90;1.00;;;;;;5051267;28;20222;-69
2022/09/19 07:19:29;;;;;;;8.57;3.90;;;14.90;1.00;;;;;;5024209;28;20247;-70
2022/09/19 07:21:55;;;;;;;12.27;3.53;;;15.20;1.00;;;;;;5022037;28;20597;-69
2022/09/19 07:24:20;;;;;;;8.50;2.90;;;16.30;1.00;;;;;;5053626;28;20180;-70
2022/09/19 07:26:46;;;;;;;8.38;3.35;;;18.10;1.00;;;;;;4983369;28;20232;-70
2022/09/19 07:29:12;;;;;;;6.65;3.38;;;19.60;93.10;;;;;;4971523;28;20263;-71
2022/09/19 07:31:37;;;;;;;10.20;3.38;;;21.50;1.00;;;;;;4978204;28;20678;-71
2022/09/19 07:34:04;;;;;;;9.18;3.25;;;22.50;1.00;;;;;;4986992;28;20211;-71
2022/09/19 07:36:30;;;;;;;12.40;4.82;;;23.70;1.00;;;;;;5057447;28;20221;-73
2022/09/19 07:38:55;;;;;;;9.02;3.20;;;24.20;11.70;;;;;;5004776;28;20536;-72
2022/09/19 07:41:21;;;;;;;10.30;3.28;;;25.20;1.00;;;;;;5042048;28;20171;-72
2022/09/19 07:43:48;;;;;;;7.57;4.93;;;24.80;1.00;;;;;;5033615;28;20226;-72
2022/09/19 07:46:17;;;;;;;7.88;2.70;;;26.00;1.00;;;;;;5011803;28;20520;-71
2022/09/19 07:48:46;;;;;;;15.27;7.85;;;25.90;99.90;;;;;;5057474;28;20402;-71
2022/09/19 07:51:11;;;;;;;9.20;4.10;;;27.10;99.90;;;;;;5013954;28;20179;-70
2022/09/19 07:53:37;;;;;;;9.35;4.07;;;27.30;99.90;;;;;;5032993;28;20255;-70
2022/09/19 07:56:04;;;;;;;9.25;3.22;;;28.20;99.90;;;;;;5042850;28;20210;-70
2022/09/19 07:58:30;;;;;;;6.68;2.92;;;28.30;99.90;;;;;;5003256;28;20205;-70
2022/09/19 08:00:58;;;;;;;7.45;3.05;;;27.30;99.90;;;;;;5055432;28;20694;-70
2022/09/19 08:03:24;;;;;;;8.73;3.10;;;25.20;99.90;;;;;;5021187;28;20251;-72
2022/09/19 08:05:51;;;;;;;7.60;3.05;;;24.40;1.00;;;;;;5036895;28;20659;-71
2022/09/19 08:08:19;;;;;;;10.95;3.42;;;23.70;1.00;;;;;;5022708;28;20198;-71
2022/09/19 08:10:46;;;;;;;10.02;3.05;;;22.90;1.00;;;;;;5031687;28;20252;-70
2022/09/19 08:13:13;;;;;;;6.07;2.63;;;22.00;1.00;;;;;;5037276;28;20189;-70
2022/09/19 08:15:39;;;;;;;11.45;3.08;;;21.40;1.00;;;;;;5029131;28;20184;-72
2022/09/19 08:18:23;;;;;;;15.55;3.10;;;20.90;99.90;;;;;;5010344;28;20753;-72
2022/09/19 08:20:49;;;;;;;8.15;3.05;;;20.80;47.30;;;;;;5024088;28;20292;-70
2022/09/19 08:23:17;;;;;;;11.60;4.07;;;20.20;1.00;;;;;;5050341;28;20602;-69
2022/09/19 08:25:51;;;;;;;8.95;3.28;;;19.70;1.00;;;;;;5003481;28;20266;-69
2022/09/19 08:28:21;;;;;;;10.13;2.90;;;18.70;1.00;;;;;;5041646;28;20312;-70
2022/09/19 08:30:47;;;;;;;6.55;3.47;;;18.20;1.00;;;;;;5034657;28;20176;-67
2022/09/19 08:33:14;;;;;;;9.02;3.70;;;18.00;1.00;;;;;;5012851;28;20213;-68
2022/09/19 08:35:41;;;;;;;10.75;3.65;;;17.40;1.00;;;;;;5061094;28;20173;-67
2022/09/19 08:38:08;;;;;;;9.30;2.88;;;17.30;1.00;;;;;;5015377;28;20195;-68
2022/09/19 08:40:44;;;;;;;8.48;3.10;;;17.10;1.00;;;;;;5036416;28;20281;-67
2022/09/19 08:43:31;;;;;;;11.80;3.30;;;17.20;1.00;;;;;;5051300;28;20579;-68
2022/09/19 08:46:09;;;;;;;11.23;4.07;;;17.40;1.00;;;;;;4961935;28;20599;-68
2022/09/19 08:49:08;;;;;;;12.90;4.50;;;17.10;1.00;;;;;;5031206;28;20172;-67
2022/09/19 08:51:47;;;;;;;10.43;4.03;;;17.30;1.00;;;;;;4994226;28;20267;-68
2022/09/19 08:54:30;;;;;;;11.02;3.30;;;17.50;1.00;;;;;;4978626;28;20256;-68
2022/09/19 08:56:57;;;;;;;6.95;3.03;;;17.60;1.00;;;;;;5015883;28;20167;-68
2022/09/19 08:59:27;;;;;;;9.13;2.92;;;17.90;1.00;;;;;;5028850;28;20319;-69
2022/09/19 09:02:28;;;;;;;11.00;3.03;;;18.00;1.00;;;;;;5038024;28;20187;-68
2022/09/19 09:04:54;;;;;;;10.35;3.05;;;18.00;1.00;;;;;;4958293;28;20215;-69
2022/09/19 09:07:39;;;;;;;8.55;2.75;;;17.70;1.00;;;;;;5019167;28;20177;-68
2022/09/19 09:10:18;;;;;;;7.55;2.65;;;18.00;1.00;;;;;;4992781;28;20199;-70
2022/09/19 09:13:13;;;;;;;10.40;3.65;;;17.90;1.00;;;;;;5059909;28;20177;-69
2022/09/19 09:16:02;;;;;;;10.32;3.30;;;18.20;1.00;;;;;;5030073;28;20301;-69
2022/09/19 09:19:06;;;;;;;8.35;3.00;;;18.20;1.00;;;;;;5009086;28;20285;-69
2022/09/19 09:21:54;;;;;;;12.95;2.70;;;18.40;1.00;;;;;;4958601;28;20183;-70
2022/09/19 09:24:28;;;;;;;13.07;3.28;;;18.50;1.00;;;;;;5031137;28;20172;-70
2022/09/19 09:26:59;;;;;;;11.73;3.75;;;18.60;1.00;;;;;;4983739;28;20188;-71
2022/09/19 09:29:30;;;;;;;11.82;3.75;;;18.60;1.00;;;;;;5022299;28;20651;-70
2022/09/19 09:32:18;;;;;;;14.57;3.30;;;19.00;1.00;;;;;;5016670;28;20201;-70
2022/09/19 09:35:21;;;;;;;10.90;3.72;;;19.20;1.00;;;;;;4984328;28;20212;-69
2022/09/19 09:37:56;;;;;;;8.02;3.13;;;19.70;1.00;;;;;;5009763;28;20555;-70
2022/09/19 09:43:20;;;;;;;9.43;2.80;;;20.30;99.90;;;;;;4942114;28;20246;-69
2022/09/19 09:45:51;;;;;;;7.15;2.78;;;20.80;92.90;;;;;;4967924;28;20176;-69
2022/09/19 09:48:29;;;;;;;8.75;3.20;;;21.10;99.90;;;;;;5028731;28;20236;-70
2022/09/19 09:51:32;;;;;;;5.30;2.50;;;21.80;99.90;;;;;;4983695;28;20165;-70
2022/09/19 09:57:24;;;;;;;6.28;3.35;;;23.80;1.00;;;;;;4963082;28;20182;-71
2022/09/19 10:05:57;;;;;;;5.55;2.72;;;22.40;1.00;;;;;;5073576;28;20183;-71
2022/09/19 10:08:33;;;;;;;7.18;2.15;;;21.80;99.90;;;;;;5071975;28;20234;-71
2022/09/19 10:11:24;;;;;;;7.38;2.45;;;21.80;1.00;;;;;;5073111;28;20168;-71
2022/09/19 10:14:01;;;;;;;6.53;2.35;;;21.70;99.90;;;;;;5073238;28;20216;-73
2022/09/19 10:16:32;;;;;;;13.43;2.53;;;21.70;1.00;;;;;;5074212;28;20239;-71
2022/09/19 10:19:06;;;;;;;4.65;2.20;;;21.90;99.90;;;;;;5073235;28;20211;-70
2022/09/19 10:21:31;;;;;;;7.93;2.30;;;22.70;99.90;;;;;;5072842;28;20188;-71
2022/09/19 10:23:57;;;;;;;7.43;2.15;;;24.10;1.00;;;;;;5006621;28;20606;-70
2022/09/19 10:26:28;;;;;;;4.72;2.80;;;25.30;1.00;;;;;;5051292;28;20181;-70
2022/09/19 10:29:04;;;;;;;5.57;2.45;;;25.50;1.00;;;;;;5004888;28;20171;-71
2022/09/19 10:31:38;;;;;;;5.65;2.30;;;26.10;1.00;;;;;;5042377;28;20175;-71
2022/09/19 10:34:22;;;;;;;6.43;1.70;;;25.80;1.00;;;;;;5038868;28;20302;-71
2022/09/19 10:36:48;;;;;;;6.05;2.40;;;24.70;99.90;;;;;;4986573;28;20176;-71
2022/09/19 10:39:16;;;;;;;5.57;1.92;;;23.70;99.90;;;;;;5051519;28;20182;-71
2022/09/19 10:41:43;;;;;;;6.25;2.15;;;23.20;1.00;;;;;;5027788;28;20164;-71
2022/09/19 10:44:25;;;;;;;5.53;3.05;;;22.50;1.00;;;;;;5020378;28;20175;-71
2022/09/19 10:46:58;;;;;;;8.60;2.63;;;21.50;99.90;;;;;;5058191;28;20172;-71
2022/09/19 10:49:29;;;;;;;4.28;1.63;;;21.50;1.00;;;;;;5017404;28;20192;-71
2022/09/19 10:51:59;;;;;;;13.40;3.08;;;21.50;99.90;;;;;;5027524;28;20276;-70
2022/09/19 10:54:38;;;;;;;9.77;2.80;;;20.90;99.90;;;;;;5051536;28;20235;-70
2022/09/19 10:57:05;;;;;;;8.23;2.60;;;20.80;1.00;;;;;;4959026;28;20163;-71
2022/09/19 10:59:38;;;;;;;10.25;2.40;;;20.50;1.00;;;;;;5020505;28;20208;-71
2022/09/19 11:02:09;;;;;;;10.63;3.97;;;20.30;1.00;;;;;;5023363;28;20174;-72
2022/09/19 11:04:36;;;;;;;10.35;4.15;;;20.40;99.90;;;;;;5057121;28;20211;-71
2022/09/19 11:07:16;;;;;;;6.57;2.30;;;20.20;1.00;;;;;;4958352;28;20197;-71
2022/09/19 11:09:44;;;;;;;9.45;3.20;;;19.80;99.90;;;;;;5026940;28;20180;-70
2022/09/19 11:12:16;;;;;;;10.65;4.10;;;19.80;99.90;;;;;;5017896;28;20176;-69
2022/09/19 11:14:48;;;;;;;8.55;2.67;;;19.90;99.90;;;;;;5024890;28;20207;-71
2022/09/19 11:17:41;;;;;;;9.02;2.33;;;20.10;99.90;;;;;;5072590;28;20215;-69
2022/09/19 11:20:19;;;;;;;7.88;2.40;;;20.20;1.00;;;;;;5020706;28;20172;-70
2022/09/19 11:23:13;;;;;;;4.88;1.70;;;19.90;99.90;;;;;;5057754;28;20237;-70
2022/09/19 11:26:27;;;;;;;7.85;2.33;;;19.60;1.00;;;;;;4980740;28;20211;-70
2022/09/19 11:29:34;;;;;;;8.48;2.85;;;19.70;1.00;;;;;;5034439;28;20206;-70
2022/09/19 11:32:14;;;;;;;5.60;2.08;;;20.10;1.00;;;;;;5014158;28;20189;-70
2022/09/19 11:34:42;;;;;;;4.05;1.88;;;20.10;99.90;;;;;;4982154;28;20216;-70
2022/09/19 11:37:25;;;;;;;9.50;2.03;;;20.10;58.10;;;;;;5032374;28;20176;-70
2022/09/19 11:40:16;;;;;;;4.82;1.70;;;20.40;27.70;;;;;;5009399;28;20623;-70
2022/09/19 11:42:48;;;;;;;4.40;2.10;;;20.40;1.00;;;;;;4982465;28;20221;-70
2022/09/19 11:45:17;;;;;;;7.13;1.92;;;20.40;47.20;;;;;;5029206;28;20192;-70
2022/09/19 11:48:13;;;;;;;10.20;1.85;;;20.30;99.90;;;;;;5005339;28;20697;-70
2022/09/19 11:50:42;;;;;;;8.55;2.10;;;20.40;1.00;;;;;;4981337;28;20246;-70
2022/09/19 11:53:28;;;;;;;4.22;2.25;;;20.60;1.00;;;;;;5032329;28;20245;-70
2022/09/19 11:56:36;;;;;;;5.38;1.35;;;20.90;16.30;;;;;;5011697;28;20183;-70
2022/09/19 11:59:30;;;;;;;4.03;1.60;;;21.00;99.90;;;;;;4889712;28;20260;-70
2022/09/19 12:02:21;;;;;;;6.40;1.65;;;21.00;99.90;;;;;;4917125;28;20179;-71
2022/09/19 12:05:11;;;;;;;7.90;2.00;;;21.10;1.00;;;;;;5031520;28;20199;-71
2022/09/19 12:07:58;;;;;;;5.50;1.77;;;20.70;99.90;;;;;;5024797;28;20617;-70
2022/09/19 12:10:37;;;;;;;3.30;1.75;;;20.50;1.00;;;;;;5075540;28;20226;-70
2022/09/19 12:13:15;;;;;;;7.20;1.80;;;20.70;1.00;;;;;;5076554;28;20198;-70
2022/09/19 12:15:46;;;;;;;6.18;1.77;;;20.70;1.00;;;;;;5076369;28;20180;-70
2022/09/19 12:18:42;;;;;;;7.10;1.42;;;21.00;1.00;;;;;;5076100;28;20314;-70
2022/09/19 12:21:11;;;;;;;4.75;2.28;;;21.20;99.90;;;;;;5066785;28;20181;-70
2022/09/19 12:26:58;;;;;;;5.78;1.80;;;20.80;99.90;;;;;;5027582;28;20589;-70
2022/09/19 12:29:36;;;;;;;7.55;1.80;;;20.10;99.90;;;;;;5009355;28;20168;-70
2022/09/19 12:32:17;;;;;;;10.48;2.28;;;19.70;1.00;;;;;;4963475;28;20167;-70
2022/09/19 12:34:51;;;;;;;7.20;1.70;;;19.50;1.00;;;;;;5034943;28;20207;-70
2022/09/19 12:37:30;;;;;;;5.75;2.20;;;19.00;99.90;;;;;;5013535;28;20184;-70
2022/09/19 12:40:06;;;;;;;8.48;2.47;;;18.90;99.90;;;;;;4961321;28;20198;-70
2022/09/19 12:43:01;;;;;;;5.35;1.70;;;18.60;99.90;;;;;;5028703;28;20453;-70
2022/09/19 12:45:39;;;;;;;7.80;1.70;;;18.70;99.90;;;;;;4987265;28;20192;-69
2022/09/19 12:48:52;;;;;;;10.18;2.45;;;18.70;1.00;;;;;;4962976;28;20357;-69
2022/09/19 12:51:33;;;;;;;9.55;2.20;;;18.90;1.00;;;;;;4970740;28;20187;-68
2022/09/19 12:54:05;;;;;;;6.38;2.53;;;19.00;1.00;;;;;;4977855;28;20209;-69
2022/09/19 12:56:38;;;;;;;9.48;2.08;;;19.40;99.90;;;;;;5074933;28;20176;-69
2022/09/19 12:59:16;;;;;;;7.05;2.03;;;19.60;1.00;;;;;;5074754;28;20223;-69
2022/09/19 13:01:55;;;;;;;6.75;2.03;;;19.60;1.00;;;;;;4997907;28;20613;-69
2022/09/19 13:04:52;;;;;;;6.68;1.80;;;19.40;1.00;;;;;;5020375;28;20528;-70
2022/09/19 13:07:26;;;;;;;4.45;1.50;;;19.40;1.00;;;;;;5012540;28;20186;-69
2022/09/19 13:09:56;;;;;;;2.80;1.50;;;19.20;43.40;;;;;;4991893;28;20172;-70
2022/09/19 13:12:36;;;;;;;7.15;1.70;;;19.10;1.00;;;;;;4991802;28;20176;-70
2022/09/19 13:15:11;;;;;;;4.65;1.70;;;19.20;40.10;;;;;;5045510;28;20219;-69
2022/09/19 13:23:33;;;;;;;5.03;2.00;;;19.90;51.60;;;;;;5074838;28;20234;-70
2022/09/19 13:26:17;;;;;;;6.50;1.80;;;19.80;1.00;;;;;;4978039;28;20168;-69
2022/09/19 13:28:54;;;;;;;7.70;2.45;;;19.70;99.90;;;;;;5031795;28;20179;-70
2022/09/19 13:31:24;;;;;;;4.13;2.00;;;19.60;99.90;;;;;;4991319;28;20175;-70
2022/09/19 13:33:52;;;;;;;9.73;2.50;;;19.40;99.90;;;;;;4991389;28;20862;-69
2022/09/19 13:36:39;;;;;;;5.30;1.88;;;19.40;1.00;;;;;;4991127;28;20627;-69
2022/09/19 13:39:43;;;;;;;7.35;2.25;;;19.60;99.90;;;;;;5047008;28;20180;-70
2022/09/19 13:42:15;;;;;;;9.88;2.28;;;19.60;99.90;;;;;;4999108;28;20624;-69
2022/09/19 13:45:01;;;;;;;8.43;1.63;;;19.60;99.90;;;;;;5032759;28;20275;-69
2022/09/19 13:47:30;;;;;;;9.77;2.20;;;19.70;1.00;;;;;;5055133;28;20272;-68